createdAt,value
2023-05-03T00:02:14.564Z,15.84
2023-05-03T00:04:42.236Z,15.79
2023-05-03T00:07:09.570Z,15.90
2023-05-03T00:09:36.842Z,15.84
2023-05-03T00:12:05.997Z,15.67
2023-05-03T00:14:33.267Z,15.73
2023-05-03T00:17:00.639Z,15.85
2023-05-03T00:19:33.778Z,15.89
2023-05-03T00:22:01.312Z,16.09
2023-05-03T00:24:28.649Z,16.02
2023-05-03T00:26:56.031Z,15.96
2023-05-03T00:29:23.458Z,16.00
2023-05-03T00:31:51.158Z,16.14
2023-05-03T00:34:18.431Z,16.13
2023-05-03T00:36:46.017Z,16.04
2023-05-03T00:39:14.188Z,15.96
2023-05-03T00:41:41.995Z,15.98
2023-05-03T00:44:09.291Z,15.88
2023-05-03T00:46:36.623Z,16.08
2023-05-03T00:49:03.955Z,16.09
2023-05-03T00:51:32.027Z,16.04
2023-05-03T00:53:59.351Z,15.93
2023-05-03T00:56:27.576Z,16.12
2023-05-03T00:58:55.771Z,16.08
2023-05-03T01:01:23.634Z,15.94
2023-05-03T01:03:51.680Z,15.92
2023-05-03T01:06:41.638Z,15.92
2023-05-03T01:09:39.971Z,15.91
2023-05-03T01:12:12.909Z,15.93
2023-05-03T01:15:08.731Z,15.90
2023-05-03T01:17:39.121Z,15.94
2023-05-03T01:20:11.454Z,15.88
2023-05-03T01:22:38.764Z,15.90
2023-05-03T01:25:08.049Z,15.75
2023-05-03T01:27:36.453Z,15.88
2023-05-03T01:30:08.244Z,15.55
2023-05-03T01:32:41.702Z,15.79
2023-05-03T01:35:32.811Z,15.70
2023-05-03T01:38:00.116Z,15.79
2023-05-03T01:40:28.169Z,15.70
2023-05-03T01:42:55.667Z,15.83
2023-05-03T01:45:23.061Z,15.88
2023-05-03T01:47:50.403Z,15.74
2023-05-03T01:50:17.756Z,15.62
2023-05-03T01:52:45.372Z,15.68
2023-05-03T01:55:12.645Z,15.74
2023-05-03T01:57:39.979Z,15.59
2023-05-03T02:00:07.848Z,15.68
2023-05-03T02:02:39.960Z,15.66
2023-05-03T02:05:07.520Z,15.57
2023-05-03T02:07:34.875Z,15.47
2023-05-03T02:10:02.849Z,15.43
2023-05-03T02:12:30.361Z,15.67
2023-05-03T02:14:57.670Z,15.52
2023-05-03T02:17:28.092Z,15.44
2023-05-03T02:19:55.451Z,15.51
2023-05-03T02:22:23.814Z,15.43
2023-05-03T02:24:51.119Z,15.32
2023-05-03T02:27:18.467Z,15.46
2023-05-03T02:29:46.002Z,15.43
2023-05-03T02:32:13.790Z,15.40
2023-05-03T02:34:41.557Z,15.32
2023-05-03T02:37:10.912Z,15.38
2023-05-03T02:39:38.565Z,15.37
2023-05-03T02:42:06.810Z,15.15
2023-05-03T02:44:34.089Z,15.39
2023-05-03T02:47:01.514Z,15.34
2023-05-03T02:49:29.112Z,15.29
2023-05-03T02:51:56.914Z,15.28
2023-05-03T02:54:24.589Z,15.35
2023-05-03T02:56:52.281Z,15.38
2023-05-03T02:59:19.555Z,15.25
2023-05-03T03:01:47.116Z,15.33
2023-05-03T03:04:15.843Z,15.32
2023-05-03T03:06:43.242Z,15.21
2023-05-03T03:09:10.781Z,15.31
2023-05-03T03:11:38.222Z,15.22
2023-05-03T03:14:05.786Z,15.30
2023-05-03T03:16:33.245Z,15.25
2023-05-03T03:19:00.701Z,15.23
2023-05-03T03:21:29.674Z,15.15
2023-05-03T03:23:57.036Z,15.20
2023-05-03T03:26:25.194Z,15.04
2023-05-03T03:28:52.575Z,15.22
2023-05-03T03:31:22.715Z,15.17
2023-05-03T03:33:50.382Z,15.16
2023-05-03T03:36:21.002Z,15.07
2023-05-03T03:38:49.489Z,15.11
2023-05-03T03:41:17.102Z,14.86
2023-05-03T03:43:45.638Z,15.10
2023-05-03T03:46:17.474Z,15.10
2023-05-03T03:48:45.628Z,14.99
2023-05-03T03:51:13.081Z,15.03
2023-05-03T03:53:46.019Z,15.04
2023-05-03T03:56:13.668Z,15.09
2023-05-03T03:58:41.945Z,14.88
2023-05-03T04:01:12.236Z,15.13
2023-05-03T04:03:40.211Z,14.93
2023-05-03T04:06:08.097Z,14.86
2023-05-03T04:08:36.596Z,14.91
2023-05-03T04:11:04.117Z,14.99
2023-05-03T04:13:36.087Z,15.08
2023-05-03T04:16:04.777Z,15.21
2023-05-03T04:18:32.750Z,14.95
2023-05-03T04:21:00.815Z,15.10
2023-05-03T04:23:28.383Z,15.04
2023-05-03T04:25:57.206Z,15.05
2023-05-03T04:28:27.092Z,15.04
2023-05-03T04:30:54.649Z,15.11
2023-05-03T04:33:25.803Z,15.21
2023-05-03T04:35:55.057Z,15.20
2023-05-03T04:38:22.671Z,15.41
2023-05-03T04:40:50.670Z,15.47
2023-05-03T04:43:18.554Z,15.48
2023-05-03T04:45:47.674Z,15.63
2023-05-03T04:48:19.405Z,15.75
2023-05-03T04:50:47.191Z,15.82
2023-05-03T04:53:17.749Z,15.86
2023-05-03T04:55:50.839Z,16.26
2023-05-03T04:58:18.348Z,16.22
2023-05-03T05:00:46.605Z,16.55
2023-05-03T05:03:20.759Z,16.49
2023-05-03T05:05:48.152Z,16.55
2023-05-03T05:08:16.110Z,16.24
2023-05-03T05:10:49.614Z,16.18
2023-05-03T05:13:21.190Z,16.28
2023-05-03T05:15:48.537Z,16.31
2023-05-03T05:18:15.814Z,16.54
2023-05-03T05:20:44.414Z,16.72
2023-05-03T05:23:12.401Z,16.63
2023-05-03T05:25:42.509Z,16.53
2023-05-03T05:28:10.888Z,16.45
2023-05-03T05:30:38.371Z,16.50
2023-05-03T05:33:05.973Z,16.60
2023-05-03T05:35:33.659Z,16.71
2023-05-03T05:38:00.944Z,16.61
2023-05-03T05:40:30.010Z,16.95
2023-05-03T05:42:58.825Z,16.81
2023-05-03T05:45:27.102Z,16.97
2023-05-03T05:47:56.755Z,17.01
2023-05-03T05:50:24.262Z,16.53
2023-05-03T05:52:57.040Z,16.80
2023-05-03T05:55:27.758Z,16.78
2023-05-03T05:57:56.240Z,16.95
2023-05-03T06:00:28.251Z,16.90
2023-05-03T06:02:55.825Z,16.87
2023-05-03T06:05:23.441Z,17.21
2023-05-03T06:07:50.914Z,16.98
2023-05-03T06:10:18.589Z,17.03
2023-05-03T06:12:49.179Z,17.26
2023-05-03T06:15:21.030Z,17.35
2023-05-03T06:17:48.562Z,17.44
2023-05-03T06:20:17.007Z,17.07
2023-05-03T06:22:44.577Z,17.11
2023-05-03T06:25:16.192Z,17.23
2023-05-03T06:27:46.009Z,17.14
2023-05-03T06:30:13.854Z,16.95
2023-05-03T06:32:42.396Z,17.09
2023-05-03T06:35:10.755Z,16.96
2023-05-03T06:37:39.924Z,16.90
2023-05-03T06:40:08.009Z,16.90
2023-05-03T06:42:37.425Z,17.05
2023-05-03T06:45:25.072Z,17.14
2023-05-03T06:47:52.446Z,17.16
2023-05-03T06:50:20.268Z,17.23
2023-05-03T06:52:47.658Z,17.48
2023-05-03T06:55:14.945Z,17.71
2023-05-03T06:57:48.785Z,17.39
2023-05-03T07:00:16.816Z,17.56
2023-05-03T07:02:44.526Z,17.37
2023-05-03T07:05:11.904Z,17.42
2023-05-03T07:07:39.288Z,17.76
2023-05-03T07:10:07.086Z,17.64
2023-05-03T07:12:34.439Z,17.80
2023-05-03T07:15:01.727Z,17.77
2023-05-03T07:17:29.012Z,17.85
2023-05-03T07:19:56.800Z,17.78
2023-05-03T07:22:25.380Z,17.99
2023-05-03T07:24:54.790Z,17.75
2023-05-03T07:27:22.728Z,17.73
2023-05-03T07:29:50.018Z,17.67
2023-05-03T07:32:17.295Z,17.65
2023-05-03T07:34:44.576Z,17.69
2023-05-03T07:37:12.192Z,17.69
2023-05-03T07:39:40.104Z,17.47
2023-05-03T07:42:07.739Z,17.71
2023-05-03T07:44:35.150Z,17.55
2023-05-03T07:47:02.997Z,17.76
2023-05-03T07:49:31.012Z,17.91
2023-05-03T07:51:58.779Z,17.59
2023-05-03T07:54:26.083Z,17.67
2023-05-03T07:56:55.525Z,17.84
2023-05-03T07:59:22.992Z,18.01
2023-05-03T08:01:50.663Z,18.07
2023-05-03T08:04:18.318Z,18.10
2023-05-03T08:06:46.184Z,18.07
2023-05-03T08:09:14.126Z,18.15
2023-05-03T08:11:43.980Z,18.07
2023-05-03T08:14:12.118Z,18.06
2023-05-03T08:16:39.571Z,18.05
2023-05-03T08:19:08.070Z,17.94
2023-05-03T08:21:35.750Z,17.98
2023-05-03T08:24:06.046Z,18.10
2023-05-03T08:26:35.458Z,18.00
2023-05-03T08:29:05.601Z,18.17
2023-05-03T08:31:33.076Z,18.15
2023-05-03T08:34:01.638Z,18.07
2023-05-03T08:36:29.021Z,18.35
2023-05-03T08:38:56.281Z,18.57
2023-05-03T08:41:30.896Z,18.76
2023-05-03T08:43:58.907Z,18.57
2023-05-03T08:46:27.516Z,18.68
2023-05-03T08:48:55.089Z,18.63
2023-05-03T08:51:28.244Z,18.47
2023-05-03T08:53:55.695Z,18.49
2023-05-03T08:56:33.365Z,18.60
2023-05-03T08:59:07.430Z,18.65
2023-05-03T09:01:40.802Z,18.52
2023-05-03T09:04:08.612Z,18.25
2023-05-03T09:06:36.864Z,18.47
2023-05-03T09:09:08.673Z,18.57
2023-05-03T09:11:37.758Z,18.50
2023-05-03T09:14:15.656Z,18.63
2023-05-03T09:16:47.237Z,19.02
2023-05-03T09:19:15.298Z,19.16
2023-05-03T09:21:43.783Z,19.08
2023-05-03T09:24:15.436Z,19.22
2023-05-03T09:26:43.077Z,19.37
2023-05-03T09:29:10.642Z,19.52
2023-05-03T09:31:38.269Z,19.79
2023-05-03T09:34:21.731Z,19.41
2023-05-03T09:36:48.960Z,19.90
2023-05-03T09:39:17.204Z,19.68
2023-05-03T09:41:44.485Z,19.78
2023-05-03T09:44:12.322Z,19.91
2023-05-03T09:46:39.595Z,20.01
2023-05-03T09:49:06.885Z,20.10
2023-05-03T09:51:34.204Z,19.91
2023-05-03T09:54:01.459Z,19.86
2023-05-03T09:56:28.728Z,19.74
2023-05-03T09:58:56.046Z,19.65
2023-05-03T10:01:24.285Z,19.81
2023-05-03T10:03:51.939Z,19.77
2023-05-03T10:06:32.075Z,19.52
2023-05-03T10:09:20.856Z,19.87
2023-05-03T10:11:49.279Z,19.81
2023-05-03T10:14:16.576Z,19.66
2023-05-03T10:16:46.233Z,20.09
2023-05-03T10:19:19.782Z,20.04
2023-05-03T10:22:08.100Z,20.29
2023-05-03T10:24:36.186Z,20.33
2023-05-03T10:27:06.487Z,20.34
2023-05-03T10:29:46.249Z,20.58
2023-05-03T10:32:31.961Z,20.39
2023-05-03T10:35:05.986Z,20.05
2023-05-03T10:37:34.725Z,20.09
2023-05-03T10:40:15.899Z,20.33
2023-05-03T10:42:54.820Z,20.17
2023-05-03T10:45:26.612Z,20.05
2023-05-03T10:48:12.017Z,20.80
2023-05-03T10:50:39.782Z,21.02
2023-05-03T10:53:07.058Z,20.93
2023-05-03T10:55:34.507Z,21.03
2023-05-03T10:58:01.988Z,20.93
2023-05-03T11:00:39.201Z,21.12
2023-05-03T11:03:18.509Z,21.33
2023-05-03T11:05:47.905Z,21.43
2023-05-03T11:08:19.380Z,21.30
2023-05-03T11:10:48.128Z,21.48
2023-05-03T11:13:15.485Z,21.08
2023-05-03T11:15:42.944Z,21.12
2023-05-03T11:18:12.035Z,21.87
2023-05-03T11:20:39.379Z,22.03
2023-05-03T11:23:09.401Z,22.25
2023-05-03T11:25:36.915Z,22.21
2023-05-03T11:28:04.401Z,22.16
2023-05-03T11:30:35.720Z,21.81
2023-05-03T11:33:03.320Z,21.56
2023-05-03T11:35:30.785Z,21.17
2023-05-03T11:37:58.072Z,21.25
2023-05-03T11:40:26.212Z,21.32
2023-05-03T11:43:00.086Z,21.57
2023-05-03T11:45:41.267Z,21.72
2023-05-03T11:48:08.736Z,21.42
2023-05-03T11:50:51.350Z,21.57
2023-05-03T11:53:18.838Z,21.80
2023-05-03T11:55:48.169Z,21.51
2023-05-03T11:58:17.667Z,21.33
2023-05-03T12:00:51.736Z,21.48
2023-05-03T12:03:24.585Z,22.00
2023-05-03T12:05:55.479Z,23.03
2023-05-03T12:08:34.507Z,23.01
2023-05-03T12:11:06.252Z,23.00
2023-05-03T12:13:38.837Z,23.66
2023-05-03T12:16:11.971Z,22.76
2023-05-03T12:18:56.152Z,22.89
2023-05-03T12:23:56.565Z,21.98
2023-05-03T12:26:26.538Z,22.30
2023-05-03T12:28:56.177Z,22.08
2023-05-03T12:31:24.452Z,22.23
2023-05-03T12:36:25.781Z,21.86
2023-05-03T12:38:56.523Z,21.39
2023-05-03T12:42:04.705Z,21.52
2023-05-03T12:44:17.060Z,22.18
2023-05-03T12:46:45.480Z,22.14
2023-05-03T12:49:15.094Z,22.58
2023-05-03T12:51:43.277Z,22.98
2023-05-03T12:54:12.221Z,22.94
2023-05-03T12:56:47.505Z,22.71
2023-05-03T13:06:47.017Z,23.09
2023-05-03T13:09:20.891Z,22.21
2023-05-03T13:11:50.337Z,21.45
2023-05-03T13:14:18.766Z,21.48
2023-05-03T13:16:46.154Z,22.20
2023-05-03T13:19:13.503Z,22.78
2023-05-03T13:21:40.892Z,22.75
2023-05-03T13:24:08.344Z,22.58
2023-05-03T13:26:35.756Z,22.13
2023-05-03T13:29:05.227Z,22.33
2023-05-03T13:31:32.790Z,23.05
2023-05-03T13:34:00.074Z,22.57
2023-05-03T13:36:28.656Z,21.87
2023-05-03T13:38:56.005Z,21.98
2023-05-03T13:41:23.262Z,22.18
2023-05-03T13:43:50.706Z,21.91
2023-05-03T13:46:18.145Z,21.67
2023-05-03T13:48:45.502Z,21.74
2023-05-03T13:51:13.272Z,21.91
2023-05-03T13:53:40.659Z,22.16
2023-05-03T13:56:08.110Z,22.00
2023-05-03T13:58:36.285Z,22.24
2023-05-03T14:01:03.652Z,22.45
2023-05-03T14:03:32.046Z,22.54
2023-05-03T14:05:59.413Z,22.34
2023-05-03T14:08:26.730Z,22.63
2023-05-03T14:10:54.262Z,23.19
2023-05-03T14:13:22.109Z,23.92
2023-05-03T14:15:49.618Z,24.18
2023-05-03T14:18:19.592Z,23.63
2023-05-03T14:20:50.513Z,22.17
2023-05-03T14:23:17.869Z,21.71
2023-05-03T14:25:45.313Z,21.74
2023-05-03T14:28:12.577Z,21.69
2023-05-03T14:30:39.875Z,21.65
2023-05-03T14:33:07.721Z,21.79
2023-05-03T14:35:35.096Z,21.86
2023-05-03T14:38:02.425Z,21.39
2023-05-03T14:40:29.651Z,21.54
2023-05-03T14:42:56.965Z,20.81
2023-05-03T14:45:24.286Z,20.70
2023-05-03T14:47:51.658Z,21.01
2023-05-03T14:50:19.407Z,20.61
2023-05-03T14:52:46.759Z,20.60
2023-05-03T14:55:14.376Z,20.59
2023-05-03T14:57:41.897Z,20.47
2023-05-03T15:00:14.246Z,20.61
2023-05-03T15:02:42.400Z,20.31
2023-05-03T15:05:10.827Z,20.16
2023-05-03T15:07:38.123Z,20.06
2023-05-03T15:10:06.268Z,20.04
2023-05-03T15:12:34.157Z,20.04
2023-05-03T15:15:01.648Z,20.05
2023-05-03T15:17:30.900Z,20.17
2023-05-03T15:19:58.226Z,19.84
2023-05-03T15:22:25.482Z,19.81
2023-05-03T15:24:52.815Z,20.05
2023-05-03T15:27:20.070Z,19.83
2023-05-03T15:29:47.325Z,19.65
2023-05-03T15:32:14.565Z,19.43
2023-05-03T15:34:41.921Z,19.32
2023-05-03T15:37:12.198Z,19.17
2023-05-03T15:39:39.534Z,19.13
2023-05-03T15:42:07.521Z,18.87
2023-05-03T15:44:34.783Z,18.87
2023-05-03T15:47:02.593Z,18.89
2023-05-03T15:49:30.058Z,18.77
2023-05-03T15:51:58.064Z,18.88
2023-05-03T15:54:25.510Z,18.67
2023-05-03T15:56:53.743Z,18.73
2023-05-03T15:59:21.010Z,18.83
2023-05-03T16:01:50.635Z,18.74
2023-05-03T16:04:18.005Z,18.63
2023-05-03T16:06:45.505Z,18.41
2023-05-03T16:09:12.992Z,18.31
2023-05-03T16:11:40.377Z,18.21
2023-05-03T16:14:09.576Z,18.24
2023-05-03T16:16:38.736Z,18.06
2023-05-03T16:19:06.959Z,17.75
2023-05-03T16:21:34.235Z,17.62
2023-05-03T16:24:01.634Z,17.71
2023-05-03T16:26:28.948Z,17.41
2023-05-03T16:28:56.271Z,17.29
2023-05-03T16:31:23.541Z,17.48
2023-05-03T16:33:50.841Z,17.49
2023-05-03T16:36:19.810Z,17.49
2023-05-03T16:38:47.169Z,17.32
2023-05-03T16:41:14.429Z,16.99
2023-05-03T16:43:41.834Z,17.09
2023-05-03T16:46:09.183Z,17.02
2023-05-03T16:48:36.533Z,16.96
2023-05-03T16:51:03.953Z,16.74
2023-05-03T16:53:31.505Z,16.74
2023-05-03T16:55:58.984Z,16.47
2023-05-03T16:58:26.310Z,16.45
2023-05-03T17:00:53.702Z,16.49
2023-05-03T17:03:21.194Z,16.34
2023-05-03T17:05:48.551Z,16.13
2023-05-03T17:08:15.830Z,16.01
2023-05-03T17:10:44.633Z,16.21
2023-05-03T17:13:11.990Z,16.08
2023-05-03T17:15:39.333Z,16.07
2023-05-03T17:18:06.999Z,15.89
2023-05-03T17:20:34.859Z,15.84
2023-05-03T17:23:02.160Z,15.79
2023-05-03T17:25:29.399Z,15.61
2023-05-03T17:27:56.869Z,15.52
2023-05-03T17:30:24.223Z,15.33
2023-05-03T17:32:51.570Z,15.35
2023-05-03T17:35:18.801Z,15.24
2023-05-03T17:37:46.135Z,15.20
2023-05-03T17:40:13.943Z,15.14
2023-05-03T17:42:41.210Z,15.19
2023-05-03T17:45:09.833Z,14.98
2023-05-03T17:47:37.098Z,14.74
2023-05-03T17:50:04.815Z,14.69
2023-05-03T17:52:32.210Z,14.66
2023-05-03T17:54:59.511Z,14.55
2023-05-03T17:57:26.764Z,14.46
2023-05-03T17:59:53.992Z,14.31
2023-05-03T18:02:21.690Z,14.20
2023-05-03T18:04:48.986Z,14.22
2023-05-03T18:07:16.229Z,14.05
2023-05-03T18:09:43.583Z,13.88
2023-05-03T18:12:10.886Z,13.94
2023-05-03T18:14:38.228Z,13.89
2023-05-03T18:17:05.491Z,14.03
2023-05-03T18:19:32.711Z,14.02
2023-05-03T18:21:59.976Z,13.94
2023-05-03T18:24:27.225Z,13.79
2023-05-03T18:26:54.493Z,13.68
2023-05-03T18:29:21.785Z,13.54
2023-05-03T18:31:49.453Z,13.65
2023-05-03T18:34:16.839Z,13.68
2023-05-03T18:36:44.121Z,13.59
2023-05-03T18:39:11.348Z,13.61
2023-05-03T18:41:38.779Z,13.54
2023-05-03T18:44:07.727Z,13.44
2023-05-03T18:46:37.344Z,13.38
2023-05-03T18:49:04.970Z,13.51
2023-05-03T18:51:32.658Z,13.44
2023-05-03T18:53:59.934Z,13.38
2023-05-03T18:56:30.214Z,13.03
2023-05-03T18:58:57.580Z,13.21
2023-05-03T19:01:26.628Z,13.19
2023-05-03T19:03:54.126Z,13.21
2023-05-03T19:06:21.399Z,13.01
2023-05-03T19:08:49.683Z,13.03
2023-05-03T19:11:17.076Z,12.96
2023-05-03T19:13:47.475Z,12.92
2023-05-03T19:16:15.716Z,12.88
2023-05-03T19:18:44.383Z,12.82
2023-05-03T19:21:19.196Z,12.99
2023-05-03T19:23:46.674Z,12.80
2023-05-03T19:26:13.931Z,12.76
2023-05-03T19:28:41.217Z,12.83
2023-05-03T19:31:08.534Z,12.82
2023-05-03T19:33:36.757Z,12.71
2023-05-03T19:36:07.144Z,12.68
2023-05-03T19:38:36.309Z,12.70
2023-05-03T19:41:11.852Z,12.63
2023-05-03T19:43:39.790Z,12.54
2023-05-03T19:46:07.395Z,12.62
2023-05-03T19:48:34.841Z,12.74
2023-05-03T19:51:02.672Z,12.73
2023-05-03T19:53:29.911Z,12.82
2023-05-03T19:55:58.114Z,12.82
2023-05-03T19:58:25.802Z,12.76
2023-05-03T20:00:53.259Z,12.76
2023-05-03T20:03:22.402Z,12.67
2023-05-03T20:05:49.877Z,12.59
2023-05-03T20:08:17.260Z,12.46
2023-05-03T20:10:46.295Z,12.68
2023-05-03T20:13:14.110Z,12.67
2023-05-03T20:15:41.588Z,12.66
2023-05-03T20:18:09.112Z,12.48
2023-05-03T20:20:36.640Z,12.57
2023-05-03T20:23:03.941Z,12.55
2023-05-03T20:25:31.858Z,12.39
2023-05-03T20:27:59.201Z,12.28
2023-05-03T20:30:26.834Z,12.33
2023-05-03T20:32:54.113Z,12.39
2023-05-03T20:35:21.555Z,12.44
2023-05-03T20:37:49.060Z,12.51
2023-05-03T20:40:16.809Z,12.50
2023-05-03T20:42:44.075Z,12.31
2023-05-03T20:45:12.420Z,12.46
2023-05-03T20:47:39.792Z,12.46
2023-05-03T20:50:08.897Z,12.40
2023-05-03T20:52:36.259Z,12.34
2023-05-03T20:55:03.619Z,12.33
2023-05-03T20:57:31.770Z,12.29
2023-05-03T21:00:00.024Z,12.34
2023-05-03T21:02:27.347Z,12.38
2023-05-03T21:04:54.727Z,12.26
2023-05-03T21:07:22.032Z,12.35
2023-05-03T21:09:49.363Z,12.38
2023-05-03T21:12:16.965Z,12.38
2023-05-03T21:14:44.227Z,12.45
2023-05-03T21:17:12.371Z,12.46
2023-05-03T21:19:39.968Z,12.46
2023-05-03T21:22:11.563Z,12.48
2023-05-03T21:24:38.844Z,12.49
2023-05-03T21:27:06.079Z,12.49
2023-05-03T21:29:33.374Z,12.49
2023-05-03T21:32:00.785Z,12.36
2023-05-03T21:34:28.143Z,12.49
2023-05-03T21:36:55.458Z,12.38
2023-05-03T21:39:22.745Z,12.47
2023-05-03T21:41:50.053Z,12.41
2023-05-03T21:44:17.450Z,12.44
2023-05-03T21:46:44.761Z,12.38
2023-05-03T21:49:12.142Z,12.36
2023-05-03T21:51:39.422Z,12.38
2023-05-03T21:54:06.694Z,12.23
2023-05-03T21:56:33.965Z,12.29
2023-05-03T21:59:01.313Z,12.34
2023-05-03T22:01:28.617Z,12.33
2023-05-03T22:03:56.122Z,12.24
2023-05-03T22:06:23.404Z,12.27
2023-05-03T22:08:50.693Z,12.27
2023-05-03T22:11:18.010Z,12.21
2023-05-03T22:14:02.947Z,12.29
2023-05-03T22:16:32.681Z,12.14
2023-05-03T22:18:59.984Z,12.12
2023-05-03T22:21:27.506Z,12.09
2023-05-03T22:23:54.822Z,12.06
2023-05-03T22:26:22.503Z,12.05
2023-05-03T22:28:49.865Z,12.05
2023-05-03T22:31:17.740Z,11.96
2023-05-03T22:33:45.135Z,12.02
2023-05-03T22:36:12.475Z,12.00
2023-05-03T22:38:42.634Z,11.95
2023-05-03T22:41:10.350Z,11.92
2023-05-03T22:43:37.747Z,11.98
2023-05-03T22:46:05.430Z,11.94
2023-05-03T22:48:34.214Z,11.83
2023-05-03T22:51:01.550Z,11.81
2023-05-03T22:53:28.800Z,11.79
2023-05-03T22:55:59.495Z,11.85
2023-05-03T22:58:26.761Z,11.81
2023-05-03T23:00:54.217Z,11.77
2023-05-03T23:03:22.491Z,11.86
2023-05-03T23:05:51.808Z,11.82
2023-05-03T23:08:19.231Z,11.78
2023-05-03T23:10:46.553Z,11.84
2023-05-03T23:13:13.842Z,11.84
2023-05-03T23:15:41.288Z,11.76
2023-05-03T23:18:08.729Z,11.80
2023-05-03T23:20:36.092Z,11.74
2023-05-03T23:23:03.443Z,11.75
2023-05-03T23:25:30.714Z,11.72
2023-05-03T23:27:58.003Z,11.72
2023-05-03T23:30:25.914Z,11.73
2023-05-03T23:32:53.856Z,11.67
2023-05-03T23:35:21.834Z,11.39
2023-05-03T23:37:49.135Z,11.61
2023-05-03T23:40:16.580Z,11.68
2023-05-03T23:42:43.921Z,11.62
2023-05-03T23:45:11.596Z,11.75
2023-05-03T23:47:38.883Z,11.72
2023-05-03T23:50:07.118Z,11.60
2023-05-03T23:52:34.681Z,11.65
2023-05-03T23:55:02.416Z,11.56
2023-05-03T23:57:29.664Z,11.61
2023-05-03T23:59:57.179Z,11.52
